sensor_id;sensor_type;location;lat;lon;timestamp;temperature;humidity
54126;DHT22;40360;52.992;6.796;2023-08-06T00:00:13;14.10;99.90
54126;DHT22;40360;52.992;6.796;2023-08-06T00:02:39;14.00;99.90
54126;DHT22;40360;52.992;6.796;2023-08-06T00:05:05;14.10;99.90
54126;DHT22;40360;52.992;6.796;2023-08-06T00:07:31;14.10;99.90
54126;DHT22;40360;52.992;6.796;2023-08-06T00:09:57;14.10;99.90
54126;DHT22;40360;52.992;6.796;2023-08-06T00:12:23;14.10;99.90
54126;DHT22;40360;52.992;6.796;2023-08-06T00:14:52;14.10;99.90
54126;DHT22;40360;52.992;6.796;2023-08-06T00:17:18;14.00;99.90
54126;DHT22;40360;52.992;6.796;2023-08-06T00:19:47;14.10;99.90
54126;DHT22;40360;52.992;6.796;2023-08-06T00:22:12;14.10;99.90
54126;DHT22;40360;52.992;6.796;2023-08-06T00:24:38;14.10;99.90
54126;DHT22;40360;52.992;6.796;2023-08-06T00:27:04;14.00;99.90
54126;DHT22;40360;52.992;6.796;2023-08-06T00:29:29;14.10;99.90
54126;DHT22;40360;52.992;6.796;2023-08-06T00:31:55;14.10;99.90
54126;DHT22;40360;52.992;6.796;2023-08-06T00:34:21;14.10;99.90
54126;DHT22;40360;52.992;6.796;2023-08-06T00:36:46;14.10;99.90
54126;DHT22;40360;52.992;6.796;2023-08-06T00:39:12;14.20;99.90
54126;DHT22;40360;52.992;6.796;2023-08-06T00:41:37;14.20;99.90
54126;DHT22;40360;52.992;6.796;2023-08-06T00:44:03;14.20;99.90
54126;DHT22;40360;52.992;6.796;2023-08-06T00:46:29;14.20;99.90
54126;DHT22;40360;52.992;6.796;2023-08-06T00:48:56;15.20;99.90
54126;DHT22;40360;52.992;6.796;2023-08-06T00:51:22;14.20;99.90
54126;DHT22;40360;52.992;6.796;2023-08-06T00:53:50;14.30;99.90
54126;DHT22;40360;52.992;6.796;2023-08-06T00:56:15;14.20;99.90
54126;DHT22;40360;52.992;6.796;2023-08-06T00:58:41;14.30;99.90
54126;DHT22;40360;52.992;6.796;2023-08-06T01:01:07;14.30;99.90
54126;DHT22;40360;52.992;6.796;2023-08-06T01:03:33;14.30;99.90
54126;DHT22;40360;52.992;6.796;2023-08-06T01:05:59;14.30;99.90
54126;DHT22;40360;52.992;6.796;2023-08-06T01:08:58;14.30;99.90
54126;DHT22;40360;52.992;6.796;2023-08-06T01:11:51;14.40;99.90
54126;DHT22;40360;52.992;6.796;2023-08-06T01:14:33;14.30;99.90
54126;DHT22;40360;52.992;6.796;2023-08-06T01:17:03;14.30;99.90
54126;DHT22;40360;52.992;6.796;2023-08-06T01:19:30;14.30;99.90
54126;DHT22;40360;52.992;6.796;2023-08-06T01:21:55;14.30;99.90
54126;DHT22;40360;52.992;6.796;2023-08-06T01:24:21;14.30;99.90
54126;DHT22;40360;52.992;6.796;2023-08-06T01:29:45;14.20;99.90
54126;DHT22;40360;52.992;6.796;2023-08-06T01:32:14;14.20;99.90
54126;DHT22;40360;52.992;6.796;2023-08-06T01:34:41;14.20;99.90
54126;DHT22;40360;52.992;6.796;2023-08-06T01:37:09;14.20;99.90
54126;DHT22;40360;52.992;6.796;2023-08-06T01:39:35;14.20;99.90
54126;DHT22;40360;52.992;6.796;2023-08-06T01:42:00;14.20;99.90
54126;DHT22;40360;52.992;6.796;2023-08-06T01:44:26;14.40;99.90
54126;DHT22;40360;52.992;6.796;2023-08-06T01:46:52;14.20;99.90
54126;DHT22;40360;52.992;6.796;2023-08-06T01:49:17;14.20;99.90
54126;DHT22;40360;52.992;6.796;2023-08-06T01:51:43;14.20;99.90
54126;DHT22;40360;52.992;6.796;2023-08-06T01:54:08;14.20;99.90
54126;DHT22;40360;52.992;6.796;2023-08-06T01:56:34;14.20;99.90
54126;DHT22;40360;52.992;6.796;2023-08-06T01:59:00;14.30;99.90
54126;DHT22;40360;52.992;6.796;2023-08-06T02:01:25;14.20;99.90
54126;DHT22;40360;52.992;6.796;2023-08-06T02:03:51;14.30;99.90
54126;DHT22;40360;52.992;6.796;2023-08-06T02:06:16;14.30;99.90
54126;DHT22;40360;52.992;6.796;2023-08-06T02:08:42;14.20;99.90
54126;DHT22;40360;52.992;6.796;2023-08-06T02:11:07;14.20;99.90
54126;DHT22;40360;52.992;6.796;2023-08-06T02:13:33;14.20;99.90
54126;DHT22;40360;52.992;6.796;2023-08-06T02:15:59;14.20;99.90
54126;DHT22;40360;52.992;6.796;2023-08-06T02:18:24;14.20;99.90
54126;DHT22;40360;52.992;6.796;2023-08-06T02:20:59;14.20;99.90
54126;DHT22;40360;52.992;6.796;2023-08-06T02:23:25;14.20;99.90
54126;DHT22;40360;52.992;6.796;2023-08-06T02:26:03;14.30;99.90
54126;DHT22;40360;52.992;6.796;2023-08-06T02:28:32;14.20;99.90
54126;DHT22;40360;52.992;6.796;2023-08-06T02:30:58;14.20;99.90
54126;DHT22;40360;52.992;6.796;2023-08-06T02:33:24;14.20;99.90
54126;DHT22;40360;52.992;6.796;2023-08-06T02:35:49;14.20;99.90
54126;DHT22;40360;52.992;6.796;2023-08-06T02:38:15;14.20;99.90
54126;DHT22;40360;52.992;6.796;2023-08-06T02:40:47;14.30;99.90
54126;DHT22;40360;52.992;6.796;2023-08-06T02:43:13;14.20;99.90
54126;DHT22;40360;52.992;6.796;2023-08-06T02:45:39;14.20;99.90
54126;DHT22;40360;52.992;6.796;2023-08-06T02:48:05;14.20;99.90
54126;DHT22;40360;52.992;6.796;2023-08-06T02:50:30;14.20;99.90
54126;DHT22;40360;52.992;6.796;2023-08-06T02:52:56;14.20;99.90
54126;DHT22;40360;52.992;6.796;2023-08-06T02:55:22;14.20;99.90
54126;DHT22;40360;52.992;6.796;2023-08-06T02:57:47;14.20;99.90
54126;DHT22;40360;52.992;6.796;2023-08-06T03:00:13;14.20;99.90
54126;DHT22;40360;52.992;6.796;2023-08-06T03:02:39;14.20;99.90
54126;DHT22;40360;52.992;6.796;2023-08-06T03:05:04;14.20;99.90
54126;DHT22;40360;52.992;6.796;2023-08-06T03:07:31;14.20;99.90
54126;DHT22;40360;52.992;6.796;2023-08-06T03:09:59;14.20;99.90
54126;DHT22;40360;52.992;6.796;2023-08-06T03:12:27;14.20;99.90
54126;DHT22;40360;52.992;6.796;2023-08-06T03:14:52;14.20;99.90
54126;DHT22;40360;52.992;6.796;2023-08-06T03:17:18;14.20;99.90
54126;DHT22;40360;52.992;6.796;2023-08-06T03:19:43;14.20;99.90
54126;DHT22;40360;52.992;6.796;2023-08-06T03:22:09;14.20;99.90
54126;DHT22;40360;52.992;6.796;2023-08-06T03:24:35;14.20;99.90
54126;DHT22;40360;52.992;6.796;2023-08-06T03:27:00;14.10;99.90
54126;DHT22;40360;52.992;6.796;2023-08-06T03:29:26;14.10;99.90
54126;DHT22;40360;52.992;6.796;2023-08-06T03:31:52;14.10;99.90
54126;DHT22;40360;52.992;6.796;2023-08-06T03:34:18;14.10;99.90
54126;DHT22;40360;52.992;6.796;2023-08-06T03:36:43;14.00;99.90
54126;DHT22;40360;52.992;6.796;2023-08-06T03:39:09;13.70;99.90
54126;DHT22;40360;52.992;6.796;2023-08-06T03:41:34;13.90;99.90
54126;DHT22;40360;52.992;6.796;2023-08-06T03:44:00;13.90;99.90
54126;DHT22;40360;52.992;6.796;2023-08-06T03:46:28;13.90;99.90
54126;DHT22;40360;52.992;6.796;2023-08-06T03:48:53;13.80;99.90
54126;DHT22;40360;52.992;6.796;2023-08-06T03:51:19;13.80;99.90
54126;DHT22;40360;52.992;6.796;2023-08-06T03:53:45;13.80;99.90
54126;DHT22;40360;52.992;6.796;2023-08-06T03:56:10;13.70;99.90
54126;DHT22;40360;52.992;6.796;2023-08-06T03:58:36;13.70;99.90
54126;DHT22;40360;52.992;6.796;2023-08-06T04:01:02;13.60;99.90
54126;DHT22;40360;52.992;6.796;2023-08-06T04:03:28;13.60;99.90
54126;DHT22;40360;52.992;6.796;2023-08-06T04:05:54;13.50;99.90
54126;DHT22;40360;52.992;6.796;2023-08-06T04:08:20;13.50;99.90
54126;DHT22;40360;52.992;6.796;2023-08-06T04:10:49;13.50;99.90
54126;DHT22;40360;52.992;6.796;2023-08-06T04:13:15;13.50;99.90
54126;DHT22;40360;52.992;6.796;2023-08-06T04:15:40;13.50;99.90
54126;DHT22;40360;52.992;6.796;2023-08-06T04:18:06;13.50;99.90
54126;DHT22;40360;52.992;6.796;2023-08-06T04:20:32;13.40;99.90
54126;DHT22;40360;52.992;6.796;2023-08-06T04:22:57;13.40;99.90
54126;DHT22;40360;52.992;6.796;2023-08-06T04:25:23;13.30;99.90
54126;DHT22;40360;52.992;6.796;2023-08-06T04:27:48;13.30;99.90
54126;DHT22;40360;52.992;6.796;2023-08-06T04:30:14;13.20;99.90
54126;DHT22;40360;52.992;6.796;2023-08-06T04:32:40;13.20;99.90
54126;DHT22;40360;52.992;6.796;2023-08-06T04:35:06;13.20;99.90
54126;DHT22;40360;52.992;6.796;2023-08-06T04:37:32;13.20;99.90
54126;DHT22;40360;52.992;6.796;2023-08-06T04:39:58;13.20;99.90
54126;DHT22;40360;52.992;6.796;2023-08-06T04:42:23;13.10;99.90
54126;DHT22;40360;52.992;6.796;2023-08-06T04:44:49;13.20;99.90
54126;DHT22;40360;52.992;6.796;2023-08-06T04:47:15;13.20;99.90
54126;DHT22;40360;52.992;6.796;2023-08-06T04:49:40;13.10;99.90
54126;DHT22;40360;52.992;6.796;2023-08-06T04:52:06;13.20;99.90
54126;DHT22;40360;52.992;6.796;2023-08-06T04:54:32;13.20;99.90
54126;DHT22;40360;52.992;6.796;2023-08-06T04:56:57;13.20;99.90
54126;DHT22;40360;52.992;6.796;2023-08-06T04:59:23;13.20;99.90
54126;DHT22;40360;52.992;6.796;2023-08-06T05:01:49;13.30;99.90
54126;DHT22;40360;52.992;6.796;2023-08-06T05:04:14;14.30;99.90
54126;DHT22;40360;52.992;6.796;2023-08-06T05:06:40;13.30;99.90
54126;DHT22;40360;52.992;6.796;2023-08-06T05:09:06;13.30;99.90
54126;DHT22;40360;52.992;6.796;2023-08-06T05:11:32;13.30;99.90
54126;DHT22;40360;52.992;6.796;2023-08-06T05:13:57;13.40;99.90
54126;DHT22;40360;52.992;6.796;2023-08-06T05:16:24;13.40;99.90
54126;DHT22;40360;52.992;6.796;2023-08-06T05:18:49;13.50;99.90
54126;DHT22;40360;52.992;6.796;2023-08-06T05:21:15;13.50;99.90
54126;DHT22;40360;52.992;6.796;2023-08-06T05:23:42;13.50;99.90
54126;DHT22;40360;52.992;6.796;2023-08-06T05:26:07;13.50;99.90
54126;DHT22;40360;52.992;6.796;2023-08-06T05:28:34;13.50;99.90
54126;DHT22;40360;52.992;6.796;2023-08-06T05:31:03;13.60;99.90
54126;DHT22;40360;52.992;6.796;2023-08-06T05:33:29;13.60;99.90
54126;DHT22;40360;52.992;6.796;2023-08-06T05:35:55;13.60;99.90
54126;DHT22;40360;52.992;6.796;2023-08-06T05:38:20;13.70;99.90
54126;DHT22;40360;52.992;6.796;2023-08-06T05:40:46;13.80;99.90
54126;DHT22;40360;52.992;6.796;2023-08-06T05:43:12;13.80;99.90
54126;DHT22;40360;52.992;6.796;2023-08-06T06:02:27;15.00;99.90
54126;DHT22;40360;52.992;6.796;2023-08-06T06:04:53;14.40;99.90
54126;DHT22;40360;52.992;6.796;2023-08-06T06:07:18;14.40;99.90
54126;DHT22;40360;52.992;6.796;2023-08-06T06:09:44;14.40;99.90
54126;DHT22;40360;52.992;6.796;2023-08-06T06:12:10;14.50;99.90
54126;DHT22;40360;52.992;6.796;2023-08-06T06:14:35;14.60;99.90
54126;DHT22;40360;52.992;6.796;2023-08-06T06:17:01;14.70;99.90
54126;DHT22;40360;52.992;6.796;2023-08-06T06:19:26;14.80;99.90
54126;DHT22;40360;52.992;6.796;2023-08-06T06:21:53;14.80;99.90
54126;DHT22;40360;52.992;6.796;2023-08-06T06:24:20;14.90;99.90
54126;DHT22;40360;52.992;6.796;2023-08-06T06:26:45;14.90;99.90
54126;DHT22;40360;52.992;6.796;2023-08-06T06:29:11;15.00;99.90
54126;DHT22;40360;52.992;6.796;2023-08-06T06:31:37;15.00;99.90
54126;DHT22;40360;52.992;6.796;2023-08-06T06:34:02;15.10;99.90
54126;DHT22;40360;52.992;6.796;2023-08-06T06:36:28;15.10;99.90
54126;DHT22;40360;52.992;6.796;2023-08-06T06:38:53;15.10;99.90
54126;DHT22;40360;52.992;6.796;2023-08-06T06:41:19;15.20;99.90
54126;DHT22;40360;52.992;6.796;2023-08-06T06:43:44;15.20;99.90
54126;DHT22;40360;52.992;6.796;2023-08-06T06:46:10;15.20;99.90
54126;DHT22;40360;52.992;6.796;2023-08-06T06:48:36;15.30;99.90
54126;DHT22;40360;52.992;6.796;2023-08-06T06:51:01;15.20;99.90
54126;DHT22;40360;52.992;6.796;2023-08-06T06:53:28;15.20;99.90
54126;DHT22;40360;52.992;6.796;2023-08-06T06:56:02;15.30;99.90
54126;DHT22;40360;52.992;6.796;2023-08-06T06:58:29;15.30;99.90
54126;DHT22;40360;52.992;6.796;2023-08-06T07:00:55;15.30;99.90
54126;DHT22;40360;52.992;6.796;2023-08-06T07:03:20;15.40;99.90
54126;DHT22;40360;52.992;6.796;2023-08-06T07:05:46;15.40;99.90
54126;DHT22;40360;52.992;6.796;2023-08-06T07:08:12;15.40;99.90
54126;DHT22;40360;52.992;6.796;2023-08-06T07:10:38;15.40;99.90
54126;DHT22;40360;52.992;6.796;2023-08-06T07:13:04;15.60;99.90
54126;DHT22;40360;52.992;6.796;2023-08-06T07:15:29;15.60;99.90
54126;DHT22;40360;52.992;6.796;2023-08-06T07:17:55;15.70;99.90
54126;DHT22;40360;52.992;6.796;2023-08-06T07:20:20;15.70;99.90
54126;DHT22;40360;52.992;6.796;2023-08-06T07:22:46;15.80;99.90
54126;DHT22;40360;52.992;6.796;2023-08-06T07:25:12;15.90;99.90
54126;DHT22;40360;52.992;6.796;2023-08-06T07:27:38;15.90;99.90
54126;DHT22;40360;52.992;6.796;2023-08-06T07:30:04;16.00;99.90
54126;DHT22;40360;52.992;6.796;2023-08-06T07:32:33;16.00;99.90
54126;DHT22;40360;52.992;6.796;2023-08-06T07:34:59;16.10;99.90
54126;DHT22;40360;52.992;6.796;2023-08-06T07:37:28;16.10;99.90
54126;DHT22;40360;52.992;6.796;2023-08-06T07:39:55;16.20;99.90
54126;DHT22;40360;52.992;6.796;2023-08-06T07:42:21;16.30;99.90
54126;DHT22;40360;52.992;6.796;2023-08-06T07:45:06;16.30;99.90
54126;DHT22;40360;52.992;6.796;2023-08-06T07:47:32;16.40;99.90
54126;DHT22;40360;52.992;6.796;2023-08-06T07:49:58;16.40;99.90
54126;DHT22;40360;52.992;6.796;2023-08-06T07:52:23;16.50;99.90
54126;DHT22;40360;52.992;6.796;2023-08-06T07:54:49;16.50;99.90
54126;DHT22;40360;52.992;6.796;2023-08-06T07:57:14;16.50;99.90
54126;DHT22;40360;52.992;6.796;2023-08-06T07:59:40;16.60;99.90
54126;DHT22;40360;52.992;6.796;2023-08-06T08:02:06;16.60;99.90
54126;DHT22;40360;52.992;6.796;2023-08-06T08:04:32;16.70;99.90
54126;DHT22;40360;52.992;6.796;2023-08-06T08:06:57;16.70;99.90
54126;DHT22;40360;52.992;6.796;2023-08-06T08:09:23;16.80;99.90
54126;DHT22;40360;52.992;6.796;2023-08-06T08:11:49;16.90;99.90
54126;DHT22;40360;52.992;6.796;2023-08-06T08:14:15;17.10;99.90
54126;DHT22;40360;52.992;6.796;2023-08-06T08:16:41;17.20;99.90
54126;DHT22;40360;52.992;6.796;2023-08-06T08:19:07;17.30;99.90
54126;DHT22;40360;52.992;6.796;2023-08-06T08:21:35;17.40;99.90
54126;DHT22;40360;52.992;6.796;2023-08-06T08:24:01;17.40;99.90
54126;DHT22;40360;52.992;6.796;2023-08-06T08:26:27;17.50;99.90
54126;DHT22;40360;52.992;6.796;2023-08-06T08:28:56;17.60;99.90
54126;DHT22;40360;52.992;6.796;2023-08-06T08:31:22;17.80;99.90
54126;DHT22;40360;52.992;6.796;2023-08-06T08:33:47;18.00;99.90
54126;DHT22;40360;52.992;6.796;2023-08-06T08:36:13;18.20;99.90
54126;DHT22;40360;52.992;6.796;2023-08-06T08:38:39;18.40;99.90
54126;DHT22;40360;52.992;6.796;2023-08-06T08:41:05;18.40;99.90
54126;DHT22;40360;52.992;6.796;2023-08-06T08:43:31;18.40;99.90
54126;DHT22;40360;52.992;6.796;2023-08-06T08:45:57;18.50;99.90
54126;DHT22;40360;52.992;6.796;2023-08-06T08:48:26;18.40;99.90
54126;DHT22;40360;52.992;6.796;2023-08-06T08:50:52;18.40;99.90
54126;DHT22;40360;52.992;6.796;2023-08-06T08:53:18;18.40;99.90
54126;DHT22;40360;52.992;6.796;2023-08-06T08:55:47;18.40;99.90
54126;DHT22;40360;52.992;6.796;2023-08-06T08:58:13;18.40;99.90
54126;DHT22;40360;52.992;6.796;2023-08-06T09:00:41;18.40;99.90
54126;DHT22;40360;52.992;6.796;2023-08-06T09:03:07;18.40;99.90
54126;DHT22;40360;52.992;6.796;2023-08-06T09:05:34;18.50;99.90
54126;DHT22;40360;52.992;6.796;2023-08-06T09:08:04;18.60;99.90
54126;DHT22;40360;52.992;6.796;2023-08-06T09:10:30;18.80;99.90
54126;DHT22;40360;52.992;6.796;2023-08-06T09:12:59;18.80;99.90
54126;DHT22;40360;52.992;6.796;2023-08-06T09:15:27;18.90;99.90
54126;DHT22;40360;52.992;6.796;2023-08-06T09:17:53;19.00;99.90
54126;DHT22;40360;52.992;6.796;2023-08-06T09:20:19;19.10;99.90
54126;DHT22;40360;52.992;6.796;2023-08-06T09:22:45;19.20;99.90
54126;DHT22;40360;52.992;6.796;2023-08-06T09:25:11;19.20;99.90
54126;DHT22;40360;52.992;6.796;2023-08-06T09:27:39;19.30;99.90
54126;DHT22;40360;52.992;6.796;2023-08-06T09:30:06;19.40;99.90
54126;DHT22;40360;52.992;6.796;2023-08-06T09:32:49;19.50;99.90
54126;DHT22;40360;52.992;6.796;2023-08-06T09:35:18;19.60;99.90
54126;DHT22;40360;52.992;6.796;2023-08-06T09:37:44;19.60;99.90
54126;DHT22;40360;52.992;6.796;2023-08-06T09:40:29;19.60;99.90
54126;DHT22;40360;52.992;6.796;2023-08-06T09:42:56;19.60;99.90
54126;DHT22;40360;52.992;6.796;2023-08-06T09:45:22;19.70;99.90
54126;DHT22;40360;52.992;6.796;2023-08-06T09:47:49;19.90;99.90
54126;DHT22;40360;52.992;6.796;2023-08-06T09:50:18;19.90;99.90
54126;DHT22;40360;52.992;6.796;2023-08-06T09:52:44;19.90;99.90
54126;DHT22;40360;52.992;6.796;2023-08-06T09:55:12;19.90;99.90
54126;DHT22;40360;52.992;6.796;2023-08-06T09:57:40;19.90;99.90
54126;DHT22;40360;52.992;6.796;2023-08-06T10:00:07;19.80;99.90
54126;DHT22;40360;52.992;6.796;2023-08-06T10:02:37;19.90;99.90
54126;DHT22;40360;52.992;6.796;2023-08-06T10:05:03;19.90;99.90
54126;DHT22;40360;52.992;6.796;2023-08-06T10:07:30;19.90;99.90
54126;DHT22;40360;52.992;6.796;2023-08-06T10:09:56;19.90;99.90
54126;DHT22;40360;52.992;6.796;2023-08-06T10:12:23;19.80;99.90
54126;DHT22;40360;52.992;6.796;2023-08-06T10:14:51;19.80;99.90
54126;DHT22;40360;52.992;6.796;2023-08-06T10:17:18;19.60;99.90
54126;DHT22;40360;52.992;6.796;2023-08-06T10:19:44;19.50;99.90
54126;DHT22;40360;52.992;6.796;2023-08-06T10:22:15;19.60;99.90
54126;DHT22;40360;52.992;6.796;2023-08-06T10:24:53;19.90;99.90
54126;DHT22;40360;52.992;6.796;2023-08-06T10:27:22;20.30;99.90
54126;DHT22;40360;52.992;6.796;2023-08-06T10:29:48;20.30;99.90
54126;DHT22;40360;52.992;6.796;2023-08-06T10:32:15;20.30;99.90
54126;DHT22;40360;52.992;6.796;2023-08-06T10:34:57;20.30;99.90
54126;DHT22;40360;52.992;6.796;2023-08-06T10:37:25;20.20;99.90
54126;DHT22;40360;52.992;6.796;2023-08-06T10:39:59;20.10;99.90
54126;DHT22;40360;52.992;6.796;2023-08-06T10:42:28;20.10;99.90
54126;DHT22;40360;52.992;6.796;2023-08-06T10:45:17;20.20;99.90
54126;DHT22;40360;52.992;6.796;2023-08-06T10:47:43;20.60;99.90
54126;DHT22;40360;52.992;6.796;2023-08-06T10:50:14;20.80;99.90
54126;DHT22;40360;52.992;6.796;2023-08-06T10:52:42;20.90;99.90
54126;DHT22;40360;52.992;6.796;2023-08-06T10:55:09;20.90;99.90
54126;DHT22;40360;52.992;6.796;2023-08-06T10:57:35;20.80;99.90
54126;DHT22;40360;52.992;6.796;2023-08-06T11:00:01;20.60;99.90
54126;DHT22;40360;52.992;6.796;2023-08-06T11:02:28;20.40;99.90
54126;DHT22;40360;52.992;6.796;2023-08-06T11:04:53;20.40;99.90
54126;DHT22;40360;52.992;6.796;2023-08-06T11:07:19;20.30;99.90
54126;DHT22;40360;52.992;6.796;2023-08-06T11:09:50;20.40;99.90
54126;DHT22;40360;52.992;6.796;2023-08-06T11:12:19;20.50;99.90
54126;DHT22;40360;52.992;6.796;2023-08-06T11:14:50;20.60;99.90
54126;DHT22;40360;52.992;6.796;2023-08-06T11:17:15;20.80;99.90
54126;DHT22;40360;52.992;6.796;2023-08-06T11:19:41;20.90;99.90
54126;DHT22;40360;52.992;6.796;2023-08-06T11:22:07;21.20;99.90
54126;DHT22;40360;52.992;6.796;2023-08-06T11:24:32;21.60;99.90
54126;DHT22;40360;52.992;6.796;2023-08-06T11:26:58;22.00;99.90
54126;DHT22;40360;52.992;6.796;2023-08-06T11:29:24;22.40;99.90
54126;DHT22;40360;52.992;6.796;2023-08-06T11:31:49;22.50;99.90
54126;DHT22;40360;52.992;6.796;2023-08-06T11:34:15;22.40;99.90
54126;DHT22;40360;52.992;6.796;2023-08-06T11:36:42;22.10;99.90
54126;DHT22;40360;52.992;6.796;2023-08-06T11:39:09;21.80;99.90
54126;DHT22;40360;52.992;6.796;2023-08-06T11:41:36;21.50;99.90
54126;DHT22;40360;52.992;6.796;2023-08-06T11:44:03;21.30;99.90
54126;DHT22;40360;52.992;6.796;2023-08-06T11:46:29;21.10;99.90
54126;DHT22;40360;52.992;6.796;2023-08-06T11:48:56;21.10;99.90
54126;DHT22;40360;52.992;6.796;2023-08-06T11:51:28;21.00;99.90
54126;DHT22;40360;52.992;6.796;2023-08-06T11:53:57;20.90;99.90
54126;DHT22;40360;52.992;6.796;2023-08-06T11:56:24;20.90;99.90
54126;DHT22;40360;52.992;6.796;2023-08-06T11:58:51;21.00;99.90
54126;DHT22;40360;52.992;6.796;2023-08-06T12:01:17;21.40;99.90
54126;DHT22;40360;52.992;6.796;2023-08-06T12:03:43;21.40;99.90
54126;DHT22;40360;52.992;6.796;2023-08-06T12:06:08;21.40;99.90
54126;DHT22;40360;52.992;6.796;2023-08-06T12:08:34;21.20;99.90
54126;DHT22;40360;52.992;6.796;2023-08-06T12:11:00;21.20;99.90
54126;DHT22;40360;52.992;6.796;2023-08-06T12:13:25;21.10;99.90
54126;DHT22;40360;52.992;6.796;2023-08-06T12:15:51;21.00;99.90
54126;DHT22;40360;52.992;6.796;2023-08-06T12:18:22;21.10;99.90
54126;DHT22;40360;52.992;6.796;2023-08-06T12:20:48;21.20;99.90
54126;DHT22;40360;52.992;6.796;2023-08-06T12:23:15;21.40;99.90
54126;DHT22;40360;52.992;6.796;2023-08-06T12:25:41;21.60;99.90
54126;DHT22;40360;52.992;6.796;2023-08-06T12:28:07;21.90;99.90
54126;DHT22;40360;52.992;6.796;2023-08-06T12:30:34;22.30;99.90
54126;DHT22;40360;52.992;6.796;2023-08-06T12:33:00;22.60;99.90
54126;DHT22;40360;52.992;6.796;2023-08-06T12:35:26;22.50;99.90
54126;DHT22;40360;52.992;6.796;2023-08-06T12:37:52;22.00;99.90
54126;DHT22;40360;52.992;6.796;2023-08-06T12:40:20;21.90;99.90
54126;DHT22;40360;52.992;6.796;2023-08-06T12:42:46;22.10;99.90
54126;DHT22;40360;52.992;6.796;2023-08-06T12:45:11;22.40;99.90
54126;DHT22;40360;52.992;6.796;2023-08-06T12:47:37;22.60;99.90
54126;DHT22;40360;52.992;6.796;2023-08-06T12:50:03;22.90;99.90
54126;DHT22;40360;52.992;6.796;2023-08-06T12:52:28;23.00;99.90
54126;DHT22;40360;52.992;6.796;2023-08-06T12:54:54;23.10;99.90
54126;DHT22;40360;52.992;6.796;2023-08-06T12:57:20;23.20;99.90
54126;DHT22;40360;52.992;6.796;2023-08-06T12:59:46;23.10;99.90
54126;DHT22;40360;52.992;6.796;2023-08-06T13:02:11;22.90;99.90
54126;DHT22;40360;52.992;6.796;2023-08-06T13:04:37;22.60;99.90
54126;DHT22;40360;52.992;6.796;2023-08-06T13:07:02;22.40;99.90
54126;DHT22;40360;52.992;6.796;2023-08-06T13:09:28;22.30;99.90
54126;DHT22;40360;52.992;6.796;2023-08-06T13:11:55;22.20;99.90
54126;DHT22;40360;52.992;6.796;2023-08-06T13:14:21;21.90;99.90
54126;DHT22;40360;52.992;6.796;2023-08-06T13:16:46;21.90;99.90
54126;DHT22;40360;52.992;6.796;2023-08-06T13:19:12;21.70;99.90
54126;DHT22;40360;52.992;6.796;2023-08-06T13:24:06;22.00;99.90
54126;DHT22;40360;52.992;6.796;2023-08-06T13:26:32;22.20;99.90
54126;DHT22;40360;52.992;6.796;2023-08-06T13:28:59;22.50;99.90
54126;DHT22;40360;52.992;6.796;2023-08-06T13:31:25;22.60;99.90
54126;DHT22;40360;52.992;6.796;2023-08-06T13:33:51;22.80;99.90
54126;DHT22;40360;52.992;6.796;2023-08-06T13:36:17;23.00;99.90
54126;DHT22;40360;52.992;6.796;2023-08-06T13:38:42;23.00;99.90
54126;DHT22;40360;52.992;6.796;2023-08-06T13:41:08;22.90;99.90
54126;DHT22;40360;52.992;6.796;2023-08-06T13:43:34;22.70;99.90
54126;DHT22;40360;52.992;6.796;2023-08-06T13:45:59;22.70;99.90
54126;DHT22;40360;52.992;6.796;2023-08-06T13:48:25;22.90;99.90
54126;DHT22;40360;52.992;6.796;2023-08-06T13:50:51;23.00;99.90
54126;DHT22;40360;52.992;6.796;2023-08-06T13:53:17;22.70;99.90
54126;DHT22;40360;52.992;6.796;2023-08-06T13:55:42;22.90;99.90
54126;DHT22;40360;52.992;6.796;2023-08-06T13:58:08;22.60;99.90
54126;DHT22;40360;52.992;6.796;2023-08-06T14:00:35;22.40;99.90
54126;DHT22;40360;52.992;6.796;2023-08-06T14:03:01;22.40;99.90
54126;DHT22;40360;52.992;6.796;2023-08-06T14:05:27;22.30;99.90
54126;DHT22;40360;52.992;6.796;2023-08-06T14:07:52;22.30;99.90
54126;DHT22;40360;52.992;6.796;2023-08-06T14:10:18;22.20;99.90
54126;DHT22;40360;52.992;6.796;2023-08-06T14:12:43;21.90;99.90
54126;DHT22;40360;52.992;6.796;2023-08-06T14:15:10;21.50;99.90
54126;DHT22;40360;52.992;6.796;2023-08-06T14:17:36;21.30;99.90
54126;DHT22;40360;52.992;6.796;2023-08-06T14:20:01;21.10;99.90
54126;DHT22;40360;52.992;6.796;2023-08-06T14:22:32;21.00;99.90
54126;DHT22;40360;52.992;6.796;2023-08-06T14:24:58;20.80;99.90
54126;DHT22;40360;52.992;6.796;2023-08-06T14:27:25;20.90;99.90
54126;DHT22;40360;52.992;6.796;2023-08-06T14:29:50;20.80;99.90
54126;DHT22;40360;52.992;6.796;2023-08-06T14:32:16;20.90;99.90
54126;DHT22;40360;52.992;6.796;2023-08-06T14:34:43;20.80;99.90
54126;DHT22;40360;52.992;6.796;2023-08-06T14:37:10;20.80;99.90
54126;DHT22;40360;52.992;6.796;2023-08-06T14:39:35;20.80;99.90
54126;DHT22;40360;52.992;6.796;2023-08-06T14:42:01;20.90;99.90
54126;DHT22;40360;52.992;6.796;2023-08-06T14:44:27;20.90;99.90
54126;DHT22;40360;52.992;6.796;2023-08-06T14:46:53;20.80;99.90
54126;DHT22;40360;52.992;6.796;2023-08-06T14:49:18;20.80;99.90
54126;DHT22;40360;52.992;6.796;2023-08-06T14:51:44;20.80;99.90
54126;DHT22;40360;52.992;6.796;2023-08-06T14:54:10;20.80;99.90
54126;DHT22;40360;52.992;6.796;2023-08-06T14:56:35;20.70;99.90
54126;DHT22;40360;52.992;6.796;2023-08-06T14:59:01;20.70;99.90
54126;DHT22;40360;52.992;6.796;2023-08-06T15:01:26;20.70;99.90
54126;DHT22;40360;52.992;6.796;2023-08-06T15:03:52;20.70;99.90
54126;DHT22;40360;52.992;6.796;2023-08-06T15:06:18;20.60;99.90
54126;DHT22;40360;52.992;6.796;2023-08-06T15:08:43;20.50;99.90
54126;DHT22;40360;52.992;6.796;2023-08-06T15:11:13;20.60;99.90
54126;DHT22;40360;52.992;6.796;2023-08-06T15:13:39;20.70;99.90
54126;DHT22;40360;52.992;6.796;2023-08-06T15:16:04;20.90;99.90
54126;DHT22;40360;52.992;6.796;2023-08-06T15:18:30;21.10;99.90
54126;DHT22;40360;52.992;6.796;2023-08-06T15:20:55;21.20;99.90
54126;DHT22;40360;52.992;6.796;2023-08-06T15:23:23;21.60;99.90
54126;DHT22;40360;52.992;6.796;2023-08-06T15:25:48;21.80;99.90
54126;DHT22;40360;52.992;6.796;2023-08-06T15:28:14;22.10;99.90
54126;DHT22;40360;52.992;6.796;2023-08-06T15:30:40;22.50;99.90
54126;DHT22;40360;52.992;6.796;2023-08-06T15:33:07;22.80;99.90
54126;DHT22;40360;52.992;6.796;2023-08-06T15:35:33;22.80;99.90
54126;DHT22;40360;52.992;6.796;2023-08-06T15:37:58;22.90;99.90
54126;DHT22;40360;52.992;6.796;2023-08-06T15:40:24;23.10;99.90
54126;DHT22;40360;52.992;6.796;2023-08-06T15:42:50;23.10;99.90
54126;DHT22;40360;52.992;6.796;2023-08-06T15:45:16;23.10;99.90
54126;DHT22;40360;52.992;6.796;2023-08-06T15:47:41;23.00;99.90